sensor_id;sensor_type;location;lat;lon;timestamp;temperature;humidity
2054;DHT22;1032;52.542;13.440;2022-12-07T00:01:49;5.30;99.90
2054;DHT22;1032;52.542;13.440;2022-12-07T00:04:17;5.40;99.90
2054;DHT22;1032;52.542;13.440;2022-12-07T00:06:51;5.10;99.90
2054;DHT22;1032;52.542;13.440;2022-12-07T00:09:18;5.20;99.90
2054;DHT22;1032;52.542;13.440;2022-12-07T00:11:48;5.10;99.90
2054;DHT22;1032;52.542;13.440;2022-12-07T00:14:17;5.30;99.90
2054;DHT22;1032;52.542;13.440;2022-12-07T00:16:44;5.20;99.90
2054;DHT22;1032;52.542;13.440;2022-12-07T00:19:12;5.40;99.90
2054;DHT22;1032;52.542;13.440;2022-12-07T00:21:39;5.00;99.90
2054;DHT22;1032;52.542;13.440;2022-12-07T00:24:06;4.80;99.90
2054;DHT22;1032;52.542;13.440;2022-12-07T00:26:34;4.90;99.90
2054;DHT22;1032;52.542;13.440;2022-12-07T00:29:04;5.40;99.90
2054;DHT22;1032;52.542;13.440;2022-12-07T00:31:33;5.30;99.90
2054;DHT22;1032;52.542;13.440;2022-12-07T00:34:04;5.20;99.90
2054;DHT22;1032;52.542;13.440;2022-12-07T00:36:30;5.50;99.90
2054;DHT22;1032;52.542;13.440;2022-12-07T00:38:58;5.40;99.90
2054;DHT22;1032;52.542;13.440;2022-12-07T00:41:26;5.30;99.90
2054;DHT22;1032;52.542;13.440;2022-12-07T00:43:54;5.20;99.90
2054;DHT22;1032;52.542;13.440;2022-12-07T00:46:21;5.00;99.90
2054;DHT22;1032;52.542;13.440;2022-12-07T00:48:50;5.30;99.90
2054;DHT22;1032;52.542;13.440;2022-12-07T00:51:18;4.30;99.90
2054;DHT22;1032;52.542;13.440;2022-12-07T00:53:45;4.90;99.90
2054;DHT22;1032;52.542;13.440;2022-12-07T00:56:14;4.70;99.90
2054;DHT22;1032;52.542;13.440;2022-12-07T00:58:41;4.80;99.90
2054;DHT22;1032;52.542;13.440;2022-12-07T01:01:09;4.70;99.90
2054;DHT22;1032;52.542;13.440;2022-12-07T01:03:37;5.10;99.90
2054;DHT22;1032;52.542;13.440;2022-12-07T01:06:05;4.80;99.90
2054;DHT22;1032;52.542;13.440;2022-12-07T01:08:32;4.90;99.90
2054;DHT22;1032;52.542;13.440;2022-12-07T01:11:00;4.80;99.90
2054;DHT22;1032;52.542;13.440;2022-12-07T01:13:27;4.60;99.90
2054;DHT22;1032;52.542;13.440;2022-12-07T01:15:56;4.70;99.90
2054;DHT22;1032;52.542;13.440;2022-12-07T01:18:23;4.40;99.90
2054;DHT22;1032;52.542;13.440;2022-12-07T01:20:57;4.60;99.90
2054;DHT22;1032;52.542;13.440;2022-12-07T01:23:25;4.60;99.90
2054;DHT22;1032;52.542;13.440;2022-12-07T01:25:55;4.50;99.90
2054;DHT22;1032;52.542;13.440;2022-12-07T01:28:22;4.20;99.90
2054;DHT22;1032;52.542;13.440;2022-12-07T01:30:55;5.00;99.90
2054;DHT22;1032;52.542;13.440;2022-12-07T01:33:22;4.70;99.90
2054;DHT22;1032;52.542;13.440;2022-12-07T01:35:49;4.80;99.90
2054;DHT22;1032;52.542;13.440;2022-12-07T01:38:15;4.70;99.90
2054;DHT22;1032;52.542;13.440;2022-12-07T01:40:43;4.80;99.90
2054;DHT22;1032;52.542;13.440;2022-12-07T01:43:15;5.00;99.90
2054;DHT22;1032;52.542;13.440;2022-12-07T01:45:43;4.80;99.90
2054;DHT22;1032;52.542;13.440;2022-12-07T01:48:11;4.70;99.90
2054;DHT22;1032;52.542;13.440;2022-12-07T01:50:40;4.60;99.90
2054;DHT22;1032;52.542;13.440;2022-12-07T01:53:09;4.90;99.90
2054;DHT22;1032;52.542;13.440;2022-12-07T01:55:40;4.50;99.90
2054;DHT22;1032;52.542;13.440;2022-12-07T01:58:11;4.70;99.90
2054;DHT22;1032;52.542;13.440;2022-12-07T02:00:38;4.70;99.90
2054;DHT22;1032;52.542;13.440;2022-12-07T02:03:07;5.00;99.90
2054;DHT22;1032;52.542;13.440;2022-12-07T02:05:37;5.00;99.90
2054;DHT22;1032;52.542;13.440;2022-12-07T02:08:04;4.80;99.90
2054;DHT22;1032;52.542;13.440;2022-12-07T02:10:32;5.00;99.90
2054;DHT22;1032;52.542;13.440;2022-12-07T02:13:02;5.00;99.90
2054;DHT22;1032;52.542;13.440;2022-12-07T02:15:39;4.80;99.90
2054;DHT22;1032;52.542;13.440;2022-12-07T02:18:12;4.20;99.90
2054;DHT22;1032;52.542;13.440;2022-12-07T02:20:47;5.00;99.90
2054;DHT22;1032;52.542;13.440;2022-12-07T02:23:37;5.00;99.90
2054;DHT22;1032;52.542;13.440;2022-12-07T02:26:34;5.00;99.90
2054;DHT22;1032;52.542;13.440;2022-12-07T02:29:14;4.90;99.90
2054;DHT22;1032;52.542;13.440;2022-12-07T02:31:46;4.50;99.90
2054;DHT22;1032;52.542;13.440;2022-12-07T02:34:20;4.80;99.90
2054;DHT22;1032;52.542;13.440;2022-12-07T02:36:54;4.50;99.90
2054;DHT22;1032;52.542;13.440;2022-12-07T02:39:28;4.60;99.90
2054;DHT22;1032;52.542;13.440;2022-12-07T02:42:02;4.60;99.90
2054;DHT22;1032;52.542;13.440;2022-12-07T02:44:31;4.10;99.90
2054;DHT22;1032;52.542;13.440;2022-12-07T02:47:02;4.60;99.90
2054;DHT22;1032;52.542;13.440;2022-12-07T02:49:29;4.80;99.90
2054;DHT22;1032;52.542;13.440;2022-12-07T02:51:56;4.40;99.90
2054;DHT22;1032;52.542;13.440;2022-12-07T02:54:23;4.40;99.90
2054;DHT22;1032;52.542;13.440;2022-12-07T02:56:53;4.80;99.90
2054;DHT22;1032;52.542;13.440;2022-12-07T02:59:32;4.00;99.90
2054;DHT22;1032;52.542;13.440;2022-12-07T03:02:09;4.70;99.90
2054;DHT22;1032;52.542;13.440;2022-12-07T03:04:45;4.50;99.90
2054;DHT22;1032;52.542;13.440;2022-12-07T03:07:24;3.90;99.90
2054;DHT22;1032;52.542;13.440;2022-12-07T03:09:59;4.40;99.90
2054;DHT22;1032;52.542;13.440;2022-12-07T03:12:32;4.50;99.90
2054;DHT22;1032;52.542;13.440;2022-12-07T03:15:07;4.50;99.90
2054;DHT22;1032;52.542;13.440;2022-12-07T03:17:37;4.40;99.90
2054;DHT22;1032;52.542;13.440;2022-12-07T03:20:10;4.60;99.90
2054;DHT22;1032;52.542;13.440;2022-12-07T03:22:38;4.40;99.90
2054;DHT22;1032;52.542;13.440;2022-12-07T03:25:10;4.20;99.90
2054;DHT22;1032;52.542;13.440;2022-12-07T03:27:41;4.50;99.90
2054;DHT22;1032;52.542;13.440;2022-12-07T03:30:16;4.40;99.90
2054;DHT22;1032;52.542;13.440;2022-12-07T03:32:46;4.40;99.90
2054;DHT22;1032;52.542;13.440;2022-12-07T03:35:17;4.50;99.90
2054;DHT22;1032;52.542;13.440;2022-12-07T03:37:48;4.50;99.90
2054;DHT22;1032;52.542;13.440;2022-12-07T03:40:19;4.40;99.90
2054;DHT22;1032;52.542;13.440;2022-12-07T03:42:50;4.30;99.90
2054;DHT22;1032;52.542;13.440;2022-12-07T03:45:20;4.30;99.90
2054;DHT22;1032;52.542;13.440;2022-12-07T03:47:54;4.40;99.90
2054;DHT22;1032;52.542;13.440;2022-12-07T03:50:29;4.50;99.90
2054;DHT22;1032;52.542;13.440;2022-12-07T03:53:02;4.40;99.90
2054;DHT22;1032;52.542;13.440;2022-12-07T03:55:33;4.80;99.90
2054;DHT22;1032;52.542;13.440;2022-12-07T03:58:03;4.50;99.90
2054;DHT22;1032;52.542;13.440;2022-12-07T04:00:32;4.50;99.90
2054;DHT22;1032;52.542;13.440;2022-12-07T04:02:59;4.50;99.90
2054;DHT22;1032;52.542;13.440;2022-12-07T04:05:26;4.40;99.90
2054;DHT22;1032;52.542;13.440;2022-12-07T04:07:53;4.50;99.90
2054;DHT22;1032;52.542;13.440;2022-12-07T04:10:19;4.30;99.90
2054;DHT22;1032;52.542;13.440;2022-12-07T04:12:46;4.30;99.90
2054;DHT22;1032;52.542;13.440;2022-12-07T04:15:13;3.90;99.90
2054;DHT22;1032;52.542;13.440;2022-12-07T04:17:41;4.70;99.90
2054;DHT22;1032;52.542;13.440;2022-12-07T04:20:08;4.40;99.90
2054;DHT22;1032;52.542;13.440;2022-12-07T04:22:35;4.40;99.90
2054;DHT22;1032;52.542;13.440;2022-12-07T04:25:02;4.40;99.90
2054;DHT22;1032;52.542;13.440;2022-12-07T04:27:29;4.40;99.90
2054;DHT22;1032;52.542;13.440;2022-12-07T04:29:56;4.70;99.90
2054;DHT22;1032;52.542;13.440;2022-12-07T04:32:23;4.10;99.90
2054;DHT22;1032;52.542;13.440;2022-12-07T04:34:51;4.40;99.90
2054;DHT22;1032;52.542;13.440;2022-12-07T04:37:17;4.30;99.90
2054;DHT22;1032;52.542;13.440;2022-12-07T04:39:44;4.60;99.90
2054;DHT22;1032;52.542;13.440;2022-12-07T04:42:11;4.40;99.90
2054;DHT22;1032;52.542;13.440;2022-12-07T04:44:38;4.50;99.90
2054;DHT22;1032;52.542;13.440;2022-12-07T04:47:05;4.20;99.90
2054;DHT22;1032;52.542;13.440;2022-12-07T04:49:31;4.00;99.90
2054;DHT22;1032;52.542;13.440;2022-12-07T04:51:59;4.40;99.90
2054;DHT22;1032;52.542;13.440;2022-12-07T04:54:26;3.90;99.90
2054;DHT22;1032;52.542;13.440;2022-12-07T04:56:53;4.40;99.90
2054;DHT22;1032;52.542;13.440;2022-12-07T04:59:19;4.90;99.90
2054;DHT22;1032;52.542;13.440;2022-12-07T05:01:46;4.40;99.90
2054;DHT22;1032;52.542;13.440;2022-12-07T05:04:12;4.20;99.90
2054;DHT22;1032;52.542;13.440;2022-12-07T05:06:41;4.50;99.90
2054;DHT22;1032;52.542;13.440;2022-12-07T05:09:09;4.30;99.90
2054;DHT22;1032;52.542;13.440;2022-12-07T05:11:36;4.30;99.90
2054;DHT22;1032;52.542;13.440;2022-12-07T05:14:09;4.30;99.90
2054;DHT22;1032;52.542;13.440;2022-12-07T05:16:36;4.40;99.90
2054;DHT22;1032;52.542;13.440;2022-12-07T05:19:04;4.50;99.90
2054;DHT22;1032;52.542;13.440;2022-12-07T05:21:31;4.60;99.90
2054;DHT22;1032;52.542;13.440;2022-12-07T05:23:58;4.50;99.90
2054;DHT22;1032;52.542;13.440;2022-12-07T05:26:26;4.70;99.90
2054;DHT22;1032;52.542;13.440;2022-12-07T05:28:53;4.50;99.90
2054;DHT22;1032;52.542;13.440;2022-12-07T05:31:20;4.80;99.90
2054;DHT22;1032;52.542;13.440;2022-12-07T05:33:47;4.60;99.90
2054;DHT22;1032;52.542;13.440;2022-12-07T05:36:14;4.80;99.90
2054;DHT22;1032;52.542;13.440;2022-12-07T05:38:40;4.50;99.90
2054;DHT22;1032;52.542;13.440;2022-12-07T05:41:08;4.50;99.90
2054;DHT22;1032;52.542;13.440;2022-12-07T05:43:57;4.70;99.90
2054;DHT22;1032;52.542;13.440;2022-12-07T05:46:23;4.50;99.90
2054;DHT22;1032;52.542;13.440;2022-12-07T05:48:50;4.80;99.90
2054;DHT22;1032;52.542;13.440;2022-12-07T05:51:17;5.00;99.90
2054;DHT22;1032;52.542;13.440;2022-12-07T05:53:44;5.10;99.90
2054;DHT22;1032;52.542;13.440;2022-12-07T05:56:10;4.70;99.90
2054;DHT22;1032;52.542;13.440;2022-12-07T05:58:37;5.00;99.90
2054;DHT22;1032;52.542;13.440;2022-12-07T06:01:22;4.80;99.90
2054;DHT22;1032;52.542;13.440;2022-12-07T06:03:49;4.90;99.90
2054;DHT22;1032;52.542;13.440;2022-12-07T06:06:16;4.60;99.90
2054;DHT22;1032;52.542;13.440;2022-12-07T06:08:43;4.90;99.90
2054;DHT22;1032;52.542;13.440;2022-12-07T06:11:09;5.10;99.90
2054;DHT22;1032;52.542;13.440;2022-12-07T06:13:54;4.90;99.90
2054;DHT22;1032;52.542;13.440;2022-12-07T06:16:20;5.20;99.90
2054;DHT22;1032;52.542;13.440;2022-12-07T06:18:48;4.80;99.90
2054;DHT22;1032;52.542;13.440;2022-12-07T06:21:15;4.90;99.90
2054;DHT22;1032;52.542;13.440;2022-12-07T06:23:41;5.10;99.90
2054;DHT22;1032;52.542;13.440;2022-12-07T06:26:08;5.00;99.90
2054;DHT22;1032;52.542;13.440;2022-12-07T06:28:34;4.40;99.90
2054;DHT22;1032;52.542;13.440;2022-12-07T06:31:02;5.30;99.90
2054;DHT22;1032;52.542;13.440;2022-12-07T06:33:29;5.10;99.90
2054;DHT22;1032;52.542;13.440;2022-12-07T06:35:57;4.60;99.90
2054;DHT22;1032;52.542;13.440;2022-12-07T06:38:24;5.10;99.90
2054;DHT22;1032;52.542;13.440;2022-12-07T06:40:50;5.20;99.90
2054;DHT22;1032;52.542;13.440;2022-12-07T06:43:17;5.40;99.90
2054;DHT22;1032;52.542;13.440;2022-12-07T06:45:44;5.30;99.90
2054;DHT22;1032;52.542;13.440;2022-12-07T06:48:10;5.20;99.90
2054;DHT22;1032;52.542;13.440;2022-12-07T06:50:37;5.30;99.90
2054;DHT22;1032;52.542;13.440;2022-12-07T06:53:05;5.30;99.90
2054;DHT22;1032;52.542;13.440;2022-12-07T06:55:32;5.30;99.90
2054;DHT22;1032;52.542;13.440;2022-12-07T06:57:58;5.10;99.90
2054;DHT22;1032;52.542;13.440;2022-12-07T07:00:27;5.10;99.90
2054;DHT22;1032;52.542;13.440;2022-12-07T07:02:53;4.60;99.90
2054;DHT22;1032;52.542;13.440;2022-12-07T07:05:20;4.80;99.90
2054;DHT22;1032;52.542;13.440;2022-12-07T07:07:47;5.10;99.90
2054;DHT22;1032;52.542;13.440;2022-12-07T07:10:15;5.30;99.90
2054;DHT22;1032;52.542;13.440;2022-12-07T07:12:42;5.20;99.90
2054;DHT22;1032;52.542;13.440;2022-12-07T07:15:09;5.10;99.90
2054;DHT22;1032;52.542;13.440;2022-12-07T07:17:37;5.30;99.90
2054;DHT22;1032;52.542;13.440;2022-12-07T07:20:04;5.50;99.90
2054;DHT22;1032;52.542;13.440;2022-12-07T07:22:31;5.20;99.90
2054;DHT22;1032;52.542;13.440;2022-12-07T07:24:58;5.30;99.90
2054;DHT22;1032;52.542;13.440;2022-12-07T07:27:26;5.10;99.90
2054;DHT22;1032;52.542;13.440;2022-12-07T07:29:53;5.50;99.90
2054;DHT22;1032;52.542;13.440;2022-12-07T07:32:19;5.20;99.90
2054;DHT22;1032;52.542;13.440;2022-12-07T07:34:47;5.00;99.90
2054;DHT22;1032;52.542;13.440;2022-12-07T07:37:13;5.50;99.90
2054;DHT22;1032;52.542;13.440;2022-12-07T07:39:40;5.20;99.90
2054;DHT22;1032;52.542;13.440;2022-12-07T07:42:07;5.40;99.90
2054;DHT22;1032;52.542;13.440;2022-12-07T07:44:35;5.70;99.90
2054;DHT22;1032;52.542;13.440;2022-12-07T07:47:02;5.20;99.90
2054;DHT22;1032;52.542;13.440;2022-12-07T07:49:29;5.30;99.90
2054;DHT22;1032;52.542;13.440;2022-12-07T07:51:55;5.60;99.90
2054;DHT22;1032;52.542;13.440;2022-12-07T07:54:22;5.40;99.90
2054;DHT22;1032;52.542;13.440;2022-12-07T07:56:49;5.70;99.90
2054;DHT22;1032;52.542;13.440;2022-12-07T07:59:15;5.60;99.90
2054;DHT22;1032;52.542;13.440;2022-12-07T08:01:43;5.10;99.90
2054;DHT22;1032;52.542;13.440;2022-12-07T08:04:10;4.90;99.90
2054;DHT22;1032;52.542;13.440;2022-12-07T08:06:37;5.60;99.90
2054;DHT22;1032;52.542;13.440;2022-12-07T08:09:03;5.70;99.90
2054;DHT22;1032;52.542;13.440;2022-12-07T08:11:31;5.60;99.90
2054;DHT22;1032;52.542;13.440;2022-12-07T08:13:57;5.40;99.90
2054;DHT22;1032;52.542;13.440;2022-12-07T08:16:24;5.80;99.90
2054;DHT22;1032;52.542;13.440;2022-12-07T08:18:52;5.50;99.90
2054;DHT22;1032;52.542;13.440;2022-12-07T08:21:19;5.60;99.90
2054;DHT22;1032;52.542;13.440;2022-12-07T08:23:46;5.50;99.90
2054;DHT22;1032;52.542;13.440;2022-12-07T08:26:14;5.70;99.90
2054;DHT22;1032;52.542;13.440;2022-12-07T08:28:41;5.70;99.90
2054;DHT22;1032;52.542;13.440;2022-12-07T08:31:10;5.50;99.90
2054;DHT22;1032;52.542;13.440;2022-12-07T08:33:38;5.60;99.90
2054;DHT22;1032;52.542;13.440;2022-12-07T08:36:08;5.60;99.90
2054;DHT22;1032;52.542;13.440;2022-12-07T08:38:35;5.70;99.90
2054;DHT22;1032;52.542;13.440;2022-12-07T08:41:02;5.80;99.90
2054;DHT22;1032;52.542;13.440;2022-12-07T08:43:29;5.60;99.90
2054;DHT22;1032;52.542;13.440;2022-12-07T08:46:07;5.70;99.90
2054;DHT22;1032;52.542;13.440;2022-12-07T08:48:37;5.60;99.90
2054;DHT22;1032;52.542;13.440;2022-12-07T08:51:06;5.50;99.90
2054;DHT22;1032;52.542;13.440;2022-12-07T08:53:34;5.90;99.90
2054;DHT22;1032;52.542;13.440;2022-12-07T08:56:01;5.80;99.90
2054;DHT22;1032;52.542;13.440;2022-12-07T08:58:27;5.90;99.90
2054;DHT22;1032;52.542;13.440;2022-12-07T09:00:54;5.50;99.90
2054;DHT22;1032;52.542;13.440;2022-12-07T09:03:21;5.80;99.90
2054;DHT22;1032;52.542;13.440;2022-12-07T09:05:47;5.90;99.90
2054;DHT22;1032;52.542;13.440;2022-12-07T09:08:15;5.80;99.90
2054;DHT22;1032;52.542;13.440;2022-12-07T09:10:42;6.00;99.90
2054;DHT22;1032;52.542;13.440;2022-12-07T09:13:09;5.80;99.90
2054;DHT22;1032;52.542;13.440;2022-12-07T09:15:35;5.90;99.90
2054;DHT22;1032;52.542;13.440;2022-12-07T09:18:02;5.70;99.90
2054;DHT22;1032;52.542;13.440;2022-12-07T09:20:29;5.80;99.90
2054;DHT22;1032;52.542;13.440;2022-12-07T09:22:55;5.30;99.90
2054;DHT22;1032;52.542;13.440;2022-12-07T09:25:23;6.10;99.90
2054;DHT22;1032;52.542;13.440;2022-12-07T09:27:55;6.00;99.90
2054;DHT22;1032;52.542;13.440;2022-12-07T09:30:22;5.80;99.90
2054;DHT22;1032;52.542;13.440;2022-12-07T09:32:49;6.00;99.90
2054;DHT22;1032;52.542;13.440;2022-12-07T09:35:15;5.90;99.90
2054;DHT22;1032;52.542;13.440;2022-12-07T09:37:42;5.70;99.90
2054;DHT22;1032;52.542;13.440;2022-12-07T09:40:09;5.20;99.90
2054;DHT22;1032;52.542;13.440;2022-12-07T09:42:39;5.80;99.90
2054;DHT22;1032;52.542;13.440;2022-12-07T09:45:14;5.60;99.90
2054;DHT22;1032;52.542;13.440;2022-12-07T09:47:41;5.80;99.90
2054;DHT22;1032;52.542;13.440;2022-12-07T09:50:14;5.60;99.90
2054;DHT22;1032;52.542;13.440;2022-12-07T09:52:41;5.60;99.90
2054;DHT22;1032;52.542;13.440;2022-12-07T09:55:11;5.80;99.90
2054;DHT22;1032;52.542;13.440;2022-12-07T09:57:40;5.70;99.90
2054;DHT22;1032;52.542;13.440;2022-12-07T10:00:12;5.80;99.90
2054;DHT22;1032;52.542;13.440;2022-12-07T10:02:40;6.00;99.90
2054;DHT22;1032;52.542;13.440;2022-12-07T10:05:13;5.60;99.90
2054;DHT22;1032;52.542;13.440;2022-12-07T10:07:40;5.70;99.90
2054;DHT22;1032;52.542;13.440;2022-12-07T10:10:14;4.90;99.90
2054;DHT22;1032;52.542;13.440;2022-12-07T10:12:55;5.80;99.90
2054;DHT22;1032;52.542;13.440;2022-12-07T10:15:22;5.80;99.90
2054;DHT22;1032;52.542;13.440;2022-12-07T10:17:50;5.10;99.90
2054;DHT22;1032;52.542;13.440;2022-12-07T10:20:23;5.70;99.90
2054;DHT22;1032;52.542;13.440;2022-12-07T10:22:54;5.70;99.90
2054;DHT22;1032;52.542;13.440;2022-12-07T10:25:23;5.70;99.90
2054;DHT22;1032;52.542;13.440;2022-12-07T10:28:00;5.70;99.90
2054;DHT22;1032;52.542;13.440;2022-12-07T10:30:27;5.90;99.90
2054;DHT22;1032;52.542;13.440;2022-12-07T10:32:53;5.70;99.90
2054;DHT22;1032;52.542;13.440;2022-12-07T10:35:23;5.70;99.90
2054;DHT22;1032;52.542;13.440;2022-12-07T10:37:52;5.70;99.90
2054;DHT22;1032;52.542;13.440;2022-12-07T10:40:28;5.40;99.90
2054;DHT22;1032;52.542;13.440;2022-12-07T10:43:17;6.00;99.90
2054;DHT22;1032;52.542;13.440;2022-12-07T10:46:07;5.80;99.90
2054;DHT22;1032;52.542;13.440;2022-12-07T10:48:45;5.90;99.90
2054;DHT22;1032;52.542;13.440;2022-12-07T10:51:17;5.60;99.90
2054;DHT22;1032;52.542;13.440;2022-12-07T10:53:59;5.80;99.90
2054;DHT22;1032;52.542;13.440;2022-12-07T10:56:44;5.60;99.90
2054;DHT22;1032;52.542;13.440;2022-12-07T10:59:26;5.60;99.90
2054;DHT22;1032;52.542;13.440;2022-12-07T11:02:02;5.70;99.90
2054;DHT22;1032;52.542;13.440;2022-12-07T11:04:37;5.90;99.90
2054;DHT22;1032;52.542;13.440;2022-12-07T11:07:12;5.80;99.90
2054;DHT22;1032;52.542;13.440;2022-12-07T11:10:02;5.60;99.90
2054;DHT22;1032;52.542;13.440;2022-12-07T11:12:40;5.60;99.90
2054;DHT22;1032;52.542;13.440;2022-12-07T11:15:17;6.10;99.90
2054;DHT22;1032;52.542;13.440;2022-12-07T11:17:50;5.90;99.90
2054;DHT22;1032;52.542;13.440;2022-12-07T11:20:33;5.90;99.90
2054;DHT22;1032;52.542;13.440;2022-12-07T11:23:06;5.90;99.90
2054;DHT22;1032;52.542;13.440;2022-12-07T11:25:46;6.00;99.90
2054;DHT22;1032;52.542;13.440;2022-12-07T11:28:25;5.40;99.90
2054;DHT22;1032;52.542;13.440;2022-12-07T11:31:02;5.90;99.90
2054;DHT22;1032;52.542;13.440;2022-12-07T11:33:36;6.40;99.90
2054;DHT22;1032;52.542;13.440;2022-12-07T11:36:17;6.00;99.90
2054;DHT22;1032;52.542;13.440;2022-12-07T11:38:54;5.70;99.90
2054;DHT22;1032;52.542;13.440;2022-12-07T11:41:25;5.90;99.90
2054;DHT22;1032;52.542;13.440;2022-12-07T11:43:56;6.00;99.90
2054;DHT22;1032;52.542;13.440;2022-12-07T11:46:29;5.70;99.90
2054;DHT22;1032;52.542;13.440;2022-12-07T11:49:07;6.00;99.90
2054;DHT22;1032;52.542;13.440;2022-12-07T11:51:38;5.90;99.90
2054;DHT22;1032;52.542;13.440;2022-12-07T11:54:12;6.00;99.90
2054;DHT22;1032;52.542;13.440;2022-12-07T11:56:40;6.00;99.90
2054;DHT22;1032;52.542;13.440;2022-12-07T11:59:11;5.90;99.90
2054;DHT22;1032;52.542;13.440;2022-12-07T12:01:48;6.30;99.90
2054;DHT22;1032;52.542;13.440;2022-12-07T12:04:26;6.00;99.90
2054;DHT22;1032;52.542;13.440;2022-12-07T12:06:54;6.60;99.90
2054;DHT22;1032;52.542;13.440;2022-12-07T12:09:23;5.80;99.90
2054;DHT22;1032;52.542;13.440;2022-12-07T12:12:05;6.10;99.90
2054;DHT22;1032;52.542;13.440;2022-12-07T12:14:42;5.70;99.90
2054;DHT22;1032;52.542;13.440;2022-12-07T12:17:44;6.20;99.90
2054;DHT22;1032;52.542;13.440;2022-12-07T12:20:20;6.20;99.90
2054;DHT22;1032;52.542;13.440;2022-12-07T12:22:52;6.20;99.90
2054;DHT22;1032;52.542;13.440;2022-12-07T12:25:22;6.50;99.90
2054;DHT22;1032;52.542;13.440;2022-12-07T12:27:50;6.20;99.90
2054;DHT22;1032;52.542;13.440;2022-12-07T12:30:34;6.00;99.90
2054;DHT22;1032;52.542;13.440;2022-12-07T12:33:05;6.40;99.90
2054;DHT22;1032;52.542;13.440;2022-12-07T12:35:34;6.50;99.90
2054;DHT22;1032;52.542;13.440;2022-12-07T12:38:31;6.20;99.90
2054;DHT22;1032;52.542;13.440;2022-12-07T12:41:00;6.60;99.90
2054;DHT22;1032;52.542;13.440;2022-12-07T12:43:46;6.40;99.90
2054;DHT22;1032;52.542;13.440;2022-12-07T12:46:52;6.90;99.90
2054;DHT22;1032;52.542;13.440;2022-12-07T12:49:44;6.60;99.90
2054;DHT22;1032;52.542;13.440;2022-12-07T12:52:49;6.60;99.90
2054;DHT22;1032;52.542;13.440;2022-12-07T12:56:07;6.40;99.90
2054;DHT22;1032;52.542;13.440;2022-12-07T12:58:39;6.30;99.90
2054;DHT22;1032;52.542;13.440;2022-12-07T13:04:34;6.50;99.90
2054;DHT22;1032;52.542;13.440;2022-12-07T13:07:03;6.20;99.90
2054;DHT22;1032;52.542;13.440;2022-12-07T13:09:33;5.90;99.90
2054;DHT22;1032;52.542;13.440;2022-12-07T13:12:04;6.50;99.90
2054;DHT22;1032;52.542;13.440;2022-12-07T13:17:57;6.80;99.90
2054;DHT22;1032;52.542;13.440;2022-12-07T13:20:46;6.40;99.90
2054;DHT22;1032;52.542;13.440;2022-12-07T13:23:18;6.70;99.90
2054;DHT22;1032;52.542;13.440;2022-12-07T13:26:00;6.40;99.90
2054;DHT22;1032;52.542;13.440;2022-12-07T13:28:35;6.50;99.90
2054;DHT22;1032;52.542;13.440;2022-12-07T13:31:29;6.30;99.90
2054;DHT22;1032;52.542;13.440;2022-12-07T13:33:57;6.20;99.90
2054;DHT22;1032;52.542;13.440;2022-12-07T13:36:26;6.30;99.90
2054;DHT22;1032;52.542;13.440;2022-12-07T13:38:57;6.20;99.90
2054;DHT22;1032;52.542;13.440;2022-12-07T13:41:25;6.20;99.90
2054;DHT22;1032;52.542;13.440;2022-12-07T13:44:01;6.10;99.90
2054;DHT22;1032;52.542;13.440;2022-12-07T13:46:40;6.50;99.90
2054;DHT22;1032;52.542;13.440;2022-12-07T13:49:17;6.20;99.90
2054;DHT22;1032;52.542;13.440;2022-12-07T13:51:45;6.10;99.90
2054;DHT22;1032;52.542;13.440;2022-12-07T13:54:13;6.30;99.90
2054;DHT22;1032;52.542;13.440;2022-12-07T13:56:41;6.10;99.90
2054;DHT22;1032;52.542;13.440;2022-12-07T13:59:14;6.40;99.90
2054;DHT22;1032;52.542;13.440;2022-12-07T14:01:42;6.60;99.90
2054;DHT22;1032;52.542;13.440;2022-12-07T14:04:19;6.30;99.90
2054;DHT22;1032;52.542;13.440;2022-12-07T14:06:54;6.20;99.90
2054;DHT22;1032;52.542;13.440;2022-12-07T14:09:23;6.40;99.90
2054;DHT22;1032;52.542;13.440;2022-12-07T14:11:53;6.20;99.90
2054;DHT22;1032;52.542;13.440;2022-12-07T14:14:21;6.40;99.90
2054;DHT22;1032;52.542;13.440;2022-12-07T14:17:08;6.30;99.90
2054;DHT22;1032;52.542;13.440;2022-12-07T14:19:41;6.20;99.90
2054;DHT22;1032;52.542;13.440;2022-12-07T14:22:15;6.20;99.90
2054;DHT22;1032;52.542;13.440;2022-12-07T14:24:45;6.00;99.90
2054;DHT22;1032;52.542;13.440;2022-12-07T14:27:20;6.00;99.90
2054;DHT22;1032;52.542;13.440;2022-12-07T14:29:47;6.10;99.90
2054;DHT22;1032;52.542;13.440;2022-12-07T14:32:19;6.00;99.90
2054;DHT22;1032;52.542;13.440;2022-12-07T14:34:59;6.10;99.90
2054;DHT22;1032;52.542;13.440;2022-12-07T14:37:27;6.10;99.90
2054;DHT22;1032;52.542;13.440;2022-12-07T14:39:56;6.10;99.90
2054;DHT22;1032;52.542;13.440;2022-12-07T14:42:26;5.50;99.90
2054;DHT22;1032;52.542;13.440;2022-12-07T14:44:53;6.00;99.90
2054;DHT22;1032;52.542;13.440;2022-12-07T14:47:20;6.10;99.90
2054;DHT22;1032;52.542;13.440;2022-12-07T14:49:47;6.20;99.90
2054;DHT22;1032;52.542;13.440;2022-12-07T14:52:16;6.50;99.90
2054;DHT22;1032;52.542;13.440;2022-12-07T14:54:43;6.30;99.90
2054;DHT22;1032;52.542;13.440;2022-12-07T14:57:12;5.80;99.90
2054;DHT22;1032;52.542;13.440;2022-12-07T14:59:38;6.30;99.90
2054;DHT22;1032;52.542;13.440;2022-12-07T15:02:06;5.90;99.90
2054;DHT22;1032;52.542;13.440;2022-12-07T15:04:33;5.70;99.90
2054;DHT22;1032;52.542;13.440;2022-12-07T15:07:03;6.10;99.90
2054;DHT22;1032;52.542;13.440;2022-12-07T15:09:30;6.00;99.90
2054;DHT22;1032;52.542;13.440;2022-12-07T15:11:56;6.00;99.90
2054;DHT22;1032;52.542;13.440;2022-12-07T15:14:24;5.80;99.90
2054;DHT22;1032;52.542;13.440;2022-12-07T15:16:51;5.90;99.90
2054;DHT22;1032;52.542;13.440;2022-12-07T15:19:19;5.60;99.90
2054;DHT22;1032;52.542;13.440;2022-12-07T15:21:48;5.70;99.90
2054;DHT22;1032;52.542;13.440;2022-12-07T15:24:15;5.70;99.90
2054;DHT22;1032;52.542;13.440;2022-12-07T15:26:42;5.70;99.90
2054;DHT22;1032;52.542;13.440;2022-12-07T15:29:09;5.80;99.90
2054;DHT22;1032;52.542;13.440;2022-12-07T15:31:38;5.70;99.90
2054;DHT22;1032;52.542;13.440;2022-12-07T15:34:04;5.70;99.90
2054;DHT22;1032;52.542;13.440;2022-12-07T15:36:32;5.60;99.90
2054;DHT22;1032;52.542;13.440;2022-12-07T15:38:59;5.60;99.90
2054;DHT22;1032;52.542;13.440;2022-12-07T15:41:26;5.50;99.90
2054;DHT22;1032;52.542;13.440;2022-12-07T15:43:53;5.40;99.90
2054;DHT22;1032;52.542;13.440;2022-12-07T15:46:40;5.30;99.90
2054;DHT22;1032;52.542;13.440;2022-12-07T15:49:11;5.40;99.90
2054;DHT22;1032;52.542;13.440;2022-12-07T15:51:38;5.20;99.90
2054;DHT22;1032;52.542;13.440;2022-12-07T15:54:05;5.60;99.90
2054;DHT22;1032;52.542;13.440;2022-12-07T15:56:31;5.50;99.90
2054;DHT22;1032;52.542;13.440;2022-12-07T15:58:58;5.50;99.90
2054;DHT22;1032;52.542;13.440;2022-12-07T16:01:25;5.00;99.90
2054;DHT22;1032;52.542;13.440;2022-12-07T16:03:53;5.80;99.90
2054;DHT22;1032;52.542;13.440;2022-12-07T16:06:19;5.60;99.90
2054;DHT22;1032;52.542;13.440;2022-12-07T16:08:46;5.80;99.90
2054;DHT22;1032;52.542;13.440;2022-12-07T16:11:13;5.80;99.90
2054;DHT22;1032;52.542;13.440;2022-12-07T16:13:40;5.90;99.90
2054;DHT22;1032;52.542;13.440;2022-12-07T16:16:09;5.60;99.90
2054;DHT22;1032;52.542;13.440;2022-12-07T16:18:36;5.70;99.90
2054;DHT22;1032;52.542;13.440;2022-12-07T16:21:04;5.40;99.90
2054;DHT22;1032;52.542;13.440;2022-12-07T16:23:31;5.60;99.90
2054;DHT22;1032;52.542;13.440;2022-12-07T16:26:04;5.70;99.90
2054;DHT22;1032;52.542;13.440;2022-12-07T16:28:31;5.50;99.90
2054;DHT22;1032;52.542;13.440;2022-12-07T16:31:05;5.50;99.90